Time;durP1;ratioP1;P1;durP2;ratioP2;P2;SDS_P1;SDS_P2;PMS_P1;PMS_P2;Temp;Humidity;BMP_temperature;BMP_pressure;BME280_temperature;BME280_humidity;BME280_pressure;Samples;Min_cycle;Max_cycle;Signal;HPM_P1;HPM_P2
2022/12/29 00:02:04;;;;;;;0.40;0.40;;;;;;;12.52;37.54;99818.25;6019763;23;20064;-86
2022/12/29 00:04:29;;;;;;;1.23;0.52;;;;;;;12.55;37.52;99817.78;6042309;23;20022;-86
2022/12/29 00:06:55;;;;;;;1.73;0.60;;;;;;;12.68;37.49;99834.88;6019250;23;20021;-86
2022/12/29 00:09:21;;;;;;;1.75;0.50;;;;;;;12.48;37.58;99811.66;6042920;23;20018;-86
2022/12/29 00:11:47;;;;;;;0.90;0.43;;;;;;;12.55;37.58;99827.69;6042989;23;20017;-86
2022/12/29 00:17:03;;;;;;;0.52;0.38;;;;;;;12.59;37.33;99843.16;6050610;23;20021;-85
2022/12/29 00:36:18;;;;;;;1.25;0.65;;;;;;;12.78;37.82;99880.81;6070798;23;19934;-86
2022/12/29 00:44:17;;;;;;;1.08;0.50;;;;;;;12.55;37.90;99833.88;6050288;23;20057;-86
2022/12/29 00:46:43;;;;;;;1.27;0.60;;;;;;;12.48;37.53;99819.69;6019561;23;20448;-86
2022/12/29 00:51:55;;;;;;;1.33;0.70;;;;;;;12.76;37.71;99861.41;6050767;23;20040;-86
2022/12/29 00:54:21;;;;;;;1.95;0.50;;;;;;;12.54;37.70;99824.22;6018694;23;20495;-86
2022/12/29 00:56:47;;;;;;;1.88;0.68;;;;;;;12.41;37.62;99800.16;6019432;23;20014;-86
2022/12/29 00:59:13;;;;;;;1.00;0.60;;;;;;;12.57;37.55;99829.16;6019392;23;20196;-86
2022/12/29 01:01:39;;;;;;;1.75;0.70;;;;;;;12.58;37.52;99844.19;6042445;23;20462;-86
2022/12/29 01:04:05;;;;;;;1.65;0.70;;;;;;;12.55;37.81;99828.50;6018918;23;20007;-86
2022/12/29 01:06:31;;;;;;;1.30;0.60;;;;;;;12.72;37.75;99854.84;6018770;23;20034;-86
2022/12/29 01:11:41;;;;;;;;;;;;;;;12.80;37.56;99873.34;6050803;23;20022;-86
2022/12/29 01:14:07;;;;;;;2.40;0.80;;;;;;;12.52;37.41;99822.75;6042519;23;19909;-86
2022/12/29 01:16:33;;;;;;;2.30;0.60;;;;;;;12.58;37.59;99833.44;6042573;23;20018;-86
2022/12/29 01:18:59;;;;;;;1.80;0.68;;;;;;;12.64;37.50;99830.94;6019875;23;20097;-86
2022/12/29 01:21:24;;;;;;;0.95;0.70;;;;;;;12.57;37.53;99831.81;6019513;23;20053;-86
2022/12/29 01:23:50;;;;;;;1.63;0.70;;;;;;;12.44;37.29;99799.72;6019184;23;20339;-86
2022/12/29 01:26:16;;;;;;;1.90;0.80;;;;;;;12.68;37.48;99833.00;6091577;23;20061;-86
2022/12/29 01:28:42;;;;;;;2.58;0.82;;;;;;;12.29;37.47;99780.44;6018423;23;20014;-86
2022/12/29 01:31:08;;;;;;;1.67;0.80;;;;;;;12.58;37.44;99812.00;6019361;23;20050;-86
2022/12/29 01:33:34;;;;;;;0.90;0.63;;;;;;;12.43;37.29;99770.44;6019730;23;20010;-86
2022/12/29 01:36:04;;;;;;;1.55;0.70;;;;;;;12.54;37.67;99799.28;6042276;23;20016;-86
2022/12/29 01:38:30;;;;;;;1.00;0.70;;;;;;;12.81;37.54;99832.09;6019648;23;20034;-86
2022/12/29 01:40:56;;;;;;;1.27;0.73;;;;;;;12.82;37.40;99841.78;6018714;23;20033;-85
2022/12/29 01:43:37;;;;;;;1.85;0.60;;;;;;;12.82;37.54;99838.28;6018604;23;20423;-85
2022/12/29 01:46:03;;;;;;;1.15;0.52;;;;;;;12.60;37.50;99814.47;6045742;23;20017;-85
2022/12/29 01:48:28;;;;;;;1.63;0.60;;;;;;;12.32;37.46;99767.41;6041505;23;20336;-86
2022/12/29 01:50:54;;;;;;;3.13;0.68;;;;;;;12.73;37.41;99827.00;6018546;23;20095;-86
2022/12/29 01:53:22;;;;;;;2.35;0.80;;;;;;;12.49;37.62;99791.06;6040148;23;20344;-86
2022/12/29 01:55:50;;;;;;;1.73;0.60;;;;;;;12.68;37.45;99816.91;6016776;23;20010;-85
2022/12/29 01:58:16;;;;;;;1.05;0.73;;;;;;;12.58;37.21;99795.13;6018329;23;20012;-86
2022/12/29 02:00:41;;;;;;;2.55;0.93;;;;;;;12.64;37.19;99809.50;6042285;23;20006;-86
2022/12/29 02:03:07;;;;;;;1.85;0.80;;;;;;;12.64;37.27;99814.88;6018765;23;20101;-86
2022/12/29 02:05:51;;;;;;;1.08;0.70;;;;;;;12.88;37.32;99843.63;6018570;23;20022;-85
2022/12/29 02:08:19;;;;;;;1.75;0.80;;;;;;;12.86;37.14;99829.56;6065612;23;20010;-85
2022/12/29 02:10:45;;;;;;;1.55;0.70;;;;;;;12.79;37.45;99823.44;6042784;23;20010;-86
2022/12/29 02:13:11;;;;;;;1.48;0.50;;;;;;;12.75;37.43;99822.22;6042103;23;20321;-85
2022/12/29 02:15:52;;;;;;;1.13;0.63;;;;;;;12.90;37.23;99836.16;6018351;23;20016;-85
2022/12/29 02:18:36;;;;;;;1.38;0.70;;;;;;;12.91;37.26;99832.44;6065597;23;20081;-85
2022/12/29 02:21:11;;;;;;;3.03;0.90;;;;;;;12.89;37.27;99829.16;6042218;23;20006;-85
2022/12/29 02:23:49;;;;;;;2.85;0.88;;;;;;;12.79;37.33;99818.06;6091242;23;20081;-86
2022/12/29 02:26:53;;;;;;;2.92;0.90;;;;;;;12.93;37.34;99824.16;6090701;23;20011;-86
2022/12/29 02:29:39;;;;;;;1.33;0.73;;;;;;;12.59;37.02;99786.03;6065631;23;20007;-86
2022/12/29 02:32:08;;;;;;;1.73;0.80;;;;;;;12.91;37.34;99837.78;6021779;23;20014;-86
2022/12/29 02:34:53;;;;;;;1.10;0.60;;;;;;;12.92;37.24;99828.72;6041456;23;20018;-86
2022/12/29 02:37:27;;;;;;;1.20;0.70;;;;;;;12.73;37.09;99795.63;6041739;23;20014;-86
2022/12/29 02:39:59;;;;;;;0.82;0.70;;;;;;;12.84;37.08;99810.19;6018489;23;20401;-86
2022/12/29 02:42:51;;;;;;;2.33;0.80;;;;;;;12.63;37.11;99781.06;6018447;23;20002;-86
2022/12/29 02:45:19;;;;;;;1.48;0.70;;;;;;;12.95;37.09;99827.44;6019183;23;20089;-86
2022/12/29 02:47:53;;;;;;;1.25;0.70;;;;;;;12.78;37.02;99803.03;6065897;23;20013;-86
2022/12/29 02:50:49;;;;;;;1.90;0.77;;;;;;;12.94;37.06;99829.31;6041921;23;20097;-86
2022/12/29 02:53:16;;;;;;;3.03;0.88;;;;;;;12.66;36.82;99778.78;6059641;23;20021;-86
2022/12/29 02:55:49;;;;;;;1.63;0.75;;;;;;;12.87;37.10;99804.41;6018342;23;20100;-86
2022/12/29 02:58:20;;;;;;;1.52;0.70;;;;;;;12.68;36.85;99765.16;6018100;23;20006;-86
2022/12/29 03:00:57;;;;;;;1.75;1.10;;;;;;;12.96;36.88;99818.38;6018475;23;20042;-86
2022/12/29 03:03:29;;;;;;;1.63;0.75;;;;;;;12.70;36.78;99768.44;6065317;23;20045;-86
2022/12/29 03:06:01;;;;;;;2.15;0.75;;;;;;;12.65;36.79;99768.25;6041962;23;20543;-86
2022/12/29 03:08:55;;;;;;;2.83;0.75;;;;;;;12.98;36.98;99807.44;6041489;23;20041;-86
2022/12/29 03:17:14;;;;;;;;;;;;;;;12.98;37.12;99799.38;6074224;23;20020;-86
2022/12/29 03:19:47;;;;;;;2.38;0.80;;;;;;;12.86;36.96;99794.72;6041770;23;19938;-86
2022/12/29 03:22:28;;;;;;;1.85;0.85;;;;;;;12.74;36.94;99766.97;6019970;23;20017;-86
2022/12/29 03:25:19;;;;;;;1.42;0.65;;;;;;;12.90;36.90;99798.63;6022484;23;20006;-86
2022/12/29 03:27:49;;;;;;;0.93;0.80;;;;;;;12.87;37.06;99804.41;6022017;23;19994;-86
2022/12/29 03:30:15;;;;;;;1.60;1.10;;;;;;;12.81;36.98;99810.63;6018947;23;20018;-86
2022/12/29 03:32:54;;;;;;;2.42;0.60;;;;;;;12.68;37.12;99770.53;6018164;23;20007;-86
2022/12/29 03:35:24;;;;;;;1.38;0.80;;;;;;;12.70;36.95;99777.28;6041110;23;20010;-86
2022/12/29 03:38:13;;;;;;;1.92;0.70;;;;;;;12.77;36.92;99780.75;6041943;23;20006;-86
2022/12/29 03:40:40;;;;;;;1.83;0.75;;;;;;;12.72;37.18;99785.94;6042994;23;20336;-86
2022/12/29 03:43:06;;;;;;;0.88;0.60;;;;;;;12.90;36.89;99813.88;6018412;23;20347;-86
2022/12/29 03:45:35;;;;;;;1.02;0.60;;;;;;;12.74;37.26;99793.78;6041164;23;20448;-86
2022/12/29 03:48:01;;;;;;;3.03;0.90;;;;;;;12.65;37.08;99774.44;6018401;23;20014;-86
2022/12/29 03:50:26;;;;;;;1.80;0.70;;;;;;;12.86;37.09;99812.66;6017469;23;20006;-86
2022/12/29 03:52:52;;;;;;;2.42;0.80;;;;;;;12.89;36.84;99820.28;6041290;23;20010;-86
2022/12/29 03:55:18;;;;;;;1.35;0.70;;;;;;;12.77;36.91;99790.66;6017533;23;20356;-86
2022/12/29 03:57:43;;;;;;;1.75;0.82;;;;;;;12.76;36.92;99775.59;6017907;23;20337;-86
2022/12/29 04:00:10;;;;;;;1.77;0.60;;;;;;;12.70;37.04;99771.13;6018083;23;20420;-86
2022/12/29 04:02:36;;;;;;;1.83;0.80;;;;;;;12.94;37.06;99802.50;6016864;23;20006;-86
2022/12/29 04:05:04;;;;;;;1.23;0.80;;;;;;;12.71;37.07;99767.38;6039094;23;20022;-86
2022/12/29 04:07:30;;;;;;;2.00;0.75;;;;;;;12.76;36.80;99762.19;6018174;23;20018;-86
2022/12/29 04:09:56;;;;;;;1.10;0.85;;;;;;;12.86;37.26;99781.31;6041114;23;20335;-86
2022/12/29 04:12:21;;;;;;;1.42;0.77;;;;;;;12.79;36.93;99769.81;6017184;23;20057;-86
2022/12/29 04:14:47;;;;;;;1.50;0.68;;;;;;;12.67;36.78;99760.81;6016517;23;20010;-86
2022/12/29 04:17:13;;;;;;;1.50;0.73;;;;;;;12.72;36.83;99777.91;6017460;23;20037;-86
2022/12/29 04:19:39;;;;;;;1.38;0.60;;;;;;;12.61;37.09;99761.69;6019405;23;20103;-86
2022/12/29 04:22:07;;;;;;;1.73;0.88;;;;;;;12.61;37.00;99756.31;6043158;23;20354;-86
2022/12/29 04:24:33;;;;;;;1.40;0.65;;;;;;;12.86;36.83;99792.03;6042396;23;20097;-86
2022/12/29 04:26:59;;;;;;;1.38;0.60;;;;;;;12.73;36.92;99773.38;6043048;23;20021;-86
2022/12/29 04:29:25;;;;;;;1.00;0.63;;;;;;;12.76;37.10;99775.59;6042202;23;20010;-86
2022/12/29 04:31:50;;;;;;;1.98;0.80;;;;;;;12.77;37.04;99786.09;6019515;23;20006;-86
2022/12/29 04:34:16;;;;;;;1.45;0.68;;;;;;;12.68;37.09;99757.94;6042688;23;20444;-86
2022/12/29 04:36:42;;;;;;;1.95;0.90;;;;;;;12.77;37.31;99780.75;6043033;23;20030;-86
2022/12/29 04:39:07;;;;;;;1.42;0.80;;;;;;;12.74;37.16;99789.22;6019245;23;20006;-86
2022/12/29 04:41:33;;;;;;;1.17;0.68;;;;;;;12.64;37.02;99766.63;6042437;23;20014;-86
2022/12/29 04:43:59;;;;;;;2.15;0.80;;;;;;;12.66;36.88;99769.88;6042876;23;20017;-86
2022/12/29 04:46:25;;;;;;;1.13;0.70;;;;;;;12.63;36.93;99762.31;6019108;23;20089;-86
2022/12/29 04:48:50;;;;;;;0.65;0.60;;;;;;;12.80;37.15;99784.03;6042623;23;20351;-86
2022/12/29 04:51:16;;;;;;;1.75;0.80;;;;;;;12.56;37.04;99747.06;6042557;23;20009;-86
2022/12/29 04:53:42;;;;;;;1.25;0.70;;;;;;;12.80;37.04;99779.50;6043181;23;20021;-86
2022/12/29 04:56:08;;;;;;;1.60;0.70;;;;;;;12.73;37.02;99765.34;6042163;23;20065;-86
2022/12/29 04:58:34;;;;;;;1.73;0.70;;;;;;;12.65;37.01;99752.19;6019079;23;20018;-86
2022/12/29 05:01:00;;;;;;;1.45;0.75;;;;;;;12.62;37.25;99742.69;6019370;23;20006;-86
2022/12/29 05:03:26;;;;;;;1.45;0.60;;;;;;;12.67;37.16;99752.78;6042471;23;20427;-86
2022/12/29 05:05:55;;;;;;;0.70;0.60;;;;;;;12.66;37.14;99738.56;6042196;23;20355;-86
2022/12/29 05:08:21;;;;;;;1.63;0.85;;;;;;;12.68;37.21;99754.44;6018583;23;20034;-85
2022/12/29 05:10:47;;;;;;;1.98;0.75;;;;;;;12.77;37.02;99756.63;6019286;23;20014;-86
2022/12/29 05:13:13;;;;;;;1.50;0.73;;;;;;;12.82;37.12;99766.69;6042098;23;20036;-86
2022/12/29 05:15:38;;;;;;;0.93;0.60;;;;;;;12.67;37.07;99739.38;6041820;23;20013;-86
2022/12/29 05:18:04;;;;;;;1.55;0.60;;;;;;;12.72;36.96;99742.22;6042021;23;20014;-86
2022/12/29 05:20:30;;;;;;;1.17;0.60;;;;;;;12.64;37.06;99731.75;6017958;23;20010;-86
2022/12/29 05:22:56;;;;;;;1.88;0.80;;;;;;;12.70;37.36;99752.34;6018772;23;20002;-86
2022/12/29 05:25:21;;;;;;;1.42;0.70;;;;;;;12.66;36.93;99743.09;6018204;23;20017;-86
2022/12/29 05:27:47;;;;;;;1.83;0.60;;;;;;;12.80;36.97;99758.06;6018390;23;20038;-86
2022/12/29 05:30:13;;;;;;;2.05;0.80;;;;;;;12.67;36.89;99750.91;6017490;23;20101;-86
2022/12/29 05:32:38;;;;;;;1.73;0.60;;;;;;;12.85;36.88;99777.00;6018277;23;20037;-86
2022/12/29 05:35:05;;;;;;;3.35;0.80;;;;;;;12.57;36.80;99735.31;6041870;23;20455;-86
2022/12/29 05:37:30;;;;;;;1.15;0.57;;;;;;;12.64;37.02;99742.47;6018561;23;20053;-86
2022/12/29 05:39:56;;;;;;;0.77;0.68;;;;;;;12.65;37.29;99752.19;6042541;23;20011;-86
2022/12/29 05:42:25;;;;;;;1.35;0.70;;;;;;;12.66;37.02;99753.81;6017973;23;20304;-86
2022/12/29 05:44:53;;;;;;;1.48;0.60;;;;;;;12.67;36.99;99753.59;6019336;23;20013;-86
2022/12/29 05:47:19;;;;;;;0.70;0.63;;;;;;;12.47;37.12;99723.41;6019124;23;20089;-86
2022/12/29 05:49:45;;;;;;;1.48;0.77;;;;;;;12.67;37.32;99763.50;6042118;23;20596;-86
2022/12/29 05:52:12;;;;;;;1.00;0.60;;;;;;;12.67;37.16;99758.13;6018507;23;20094;-86
2022/12/29 05:54:38;;;;;;;1.27;0.52;;;;;;;12.70;37.25;99776.47;6017756;23;20014;-86
2022/12/29 05:57:07;;;;;;;1.73;0.68;;;;;;;12.57;37.26;99746.03;6039732;23;20018;-86
2022/12/29 05:59:32;;;;;;;1.25;0.68;;;;;;;12.71;37.12;99778.09;6039516;23;20018;-86
2022/12/29 06:01:58;;;;;;;2.10;0.95;;;;;;;12.57;37.23;99742.53;6039425;23;20314;-86
2022/12/29 06:04:24;;;;;;;2.15;0.70;;;;;;;12.65;37.15;99761.03;6015324;23;20459;-86
2022/12/29 06:06:50;;;;;;;1.48;0.80;;;;;;;12.64;37.26;99761.25;6038857;23;20513;-86
2022/12/29 06:09:18;;;;;;;1.33;0.60;;;;;;;12.59;37.47;99749.31;6016462;23;20010;-86
2022/12/29 06:11:44;;;;;;;1.80;0.73;;;;;;;12.61;37.36;99773.25;6042469;23;20006;-86
2022/12/29 06:14:10;;;;;;;1.23;0.77;;;;;;;12.47;37.42;99748.38;6016671;23;20450;-86
2022/12/29 06:16:38;;;;;;;0.70;0.52;;;;;;;12.64;37.17;99758.56;6016364;23;20363;-86
2022/12/29 06:19:04;;;;;;;0.88;0.60;;;;;;;12.57;37.07;99755.94;6019014;23;20057;-86
2022/12/29 06:21:29;;;;;;;1.45;0.60;;;;;;;12.59;37.08;99759.25;6018354;23;20021;-86
2022/12/29 06:23:55;;;;;;;2.03;1.13;;;;;;;12.61;37.42;99764.34;6042309;23;20006;-86
2022/12/29 06:26:21;;;;;;;1.73;0.88;;;;;;;12.53;37.26;99738.66;6041712;23;20018;-86
2022/12/29 06:28:46;;;;;;;2.25;0.70;;;;;;;12.57;37.29;99751.41;6019003;23;20466;-86
2022/12/29 06:31:12;;;;;;;1.05;0.68;;;;;;;12.68;37.19;99768.66;6042360;23;20424;-86
2022/12/29 06:33:38;;;;;;;2.25;0.68;;;;;;;12.61;37.08;99762.53;6042544;23;20351;-86
2022/12/29 06:36:04;;;;;;;2.83;0.90;;;;;;;12.73;37.28;99776.06;6018081;23;20224;-86
2022/12/29 06:38:30;;;;;;;2.08;1.05;;;;;;;12.78;37.28;99784.28;6018156;23;20007;-86
2022/12/29 06:40:55;;;;;;;2.25;0.77;;;;;;;12.59;37.31;99760.06;6043008;23;20006;-86
2022/12/29 06:43:21;;;;;;;1.55;0.90;;;;;;;12.58;37.43;99754.91;6019536;23;20014;-86
2022/12/29 06:45:47;;;;;;;1.90;0.70;;;;;;;12.48;37.26;99723.19;6018491;23;20030;-86
2022/12/29 06:48:13;;;;;;;1.05;0.60;;;;;;;12.56;37.29;99751.63;6018836;23;20014;-86
2022/12/29 06:50:39;;;;;;;1.58;0.90;;;;;;;12.65;37.11;99760.22;6018776;23;20006;-86
2022/12/29 06:53:04;;;;;;;1.65;0.90;;;;;;;12.47;37.32;99729.63;6019257;23;20015;-86
2022/12/29 06:55:32;;;;;;;1.25;0.75;;;;;;;12.69;37.55;99762.22;6019032;23;20019;-86
2022/12/29 06:57:58;;;;;;;1.67;0.80;;;;;;;12.32;37.43;99699.63;6042919;23;20014;-86
2022/12/29 07:00:24;;;;;;;1.67;0.68;;;;;;;12.68;37.61;99760.59;6042033;23;20263;-86
2022/12/29 07:02:50;;;;;;;1.50;0.80;;;;;;;12.69;37.38;99764.09;6018692;23;20006;-86
2022/12/29 07:05:16;;;;;;;0.98;0.60;;;;;;;12.55;37.16;99734.69;6025572;23;20329;-86
2022/12/29 07:07:42;;;;;;;1.23;0.70;;;;;;;12.63;37.58;99754.25;5991058;23;20017;-86
2022/12/29 07:10:08;;;;;;;1.58;0.70;;;;;;;12.67;37.43;99753.59;5990767;23;20014;-86
2022/12/29 07:12:33;;;;;;;2.70;1.08;;;;;;;12.63;37.25;99744.34;6013675;23;20014;-86
2022/12/29 07:14:59;;;;;;;1.38;0.77;;;;;;;12.37;37.65;99705.97;6013778;23;20023;-86
2022/12/29 07:17:25;;;;;;;0.60;0.60;;;;;;;12.35;37.51;99693.84;5990280;23;20011;-86
2022/12/29 07:19:51;;;;;;;2.63;1.00;;;;;;;12.74;37.32;99775.81;5990571;23;20011;-86
2022/12/29 07:22:16;;;;;;;1.20;0.75;;;;;;;12.54;37.48;99730.41;5990084;23;20440;-86
2022/12/29 07:24:43;;;;;;;1.90;0.90;;;;;;;12.49;37.21;99737.44;5990833;23;20006;-86
2022/12/29 07:27:08;;;;;;;1.15;0.80;;;;;;;12.48;37.08;99728.56;6013571;23;20006;-86
2022/12/29 07:29:36;;;;;;;1.85;0.90;;;;;;;12.62;37.52;99750.75;5990312;23;20018;-86
2022/12/29 07:32:02;;;;;;;2.15;0.90;;;;;;;12.54;37.65;99741.13;5990436;23;20344;-86
2022/12/29 07:34:27;;;;;;;2.55;0.98;;;;;;;12.44;37.10;99723.88;5989912;23;20011;-86
2022/12/29 07:36:53;;;;;;;1.52;0.80;;;;;;;12.44;37.47;99730.03;5989896;23;20385;-86
2022/12/29 07:39:19;;;;;;;1.15;0.70;;;;;;;12.51;37.39;99732.69;5990210;23;20011;-86
2022/12/29 07:41:44;;;;;;;3.30;0.90;;;;;;;12.52;37.48;99735.16;5990333;23;20077;-86
2022/12/29 07:44:16;;;;;;;1.92;1.17;;;;;;;12.57;37.42;99745.22;5990430;23;20018;-86
2022/12/29 07:46:41;;;;;;;2.22;0.85;;;;;;;12.49;37.61;99732.91;5989827;23;20011;-86
2022/12/29 07:49:07;;;;;;;1.73;1.02;;;;;;;12.44;37.67;99724.69;5990441;23;20011;-86
2022/12/29 07:51:33;;;;;;;2.10;1.02;;;;;;;12.53;37.32;99747.50;5990726;23;20003;-86
2022/12/29 07:54:00;;;;;;;1.92;1.08;;;;;;;12.50;37.54;99747.94;5991240;23;20494;-86
2022/12/29 07:56:26;;;;;;;2.72;1.20;;;;;;;12.51;37.41;99746.91;6015959;23;20017;-86
2022/12/29 07:58:52;;;;;;;1.60;0.90;;;;;;;12.43;37.65;99723.03;5992766;23;20075;-86
2022/12/29 08:01:18;;;;;;;2.05;1.02;;;;;;;12.52;37.23;99740.50;5989967;23;20014;-86
2022/12/29 08:03:43;;;;;;;1.77;1.25;;;;;;;12.60;37.75;99752.81;5989089;23;20470;-86
2022/12/29 08:06:12;;;;;;;2.35;1.00;;;;;;;12.46;37.42;99733.31;6010770;23;20023;-86
2022/12/29 08:08:38;;;;;;;2.30;1.02;;;;;;;12.55;37.52;99750.78;6011951;23;20017;-86
2022/12/29 08:11:04;;;;;;;2.00;1.00;;;;;;;12.42;37.58;99729.44;6036055;23;20014;-86
2022/12/29 08:13:29;;;;;;;1.75;0.80;;;;;;;12.52;37.66;99745.03;6013186;23;20360;-86
2022/12/29 08:15:57;;;;;;;2.35;1.23;;;;;;;12.57;37.46;99747.88;6038147;23;20011;-86
2022/12/29 08:18:23;;;;;;;1.45;1.08;;;;;;;12.54;37.73;99748.34;6014735;23;20015;-86
2022/12/29 08:20:49;;;;;;;1.95;1.30;;;;;;;12.67;37.42;99768.88;6015395;23;20459;-86
2022/12/29 08:23:15;;;;;;;3.40;1.30;;;;;;;12.37;37.50;99710.50;6013593;23;20030;-86
2022/12/29 08:25:40;;;;;;;1.63;1.20;;;;;;;12.41;37.53;99725.13;6013142;23;20018;-86
2022/12/29 08:28:06;;;;;;;2.20;1.35;;;;;;;12.42;37.58;99720.56;6014882;23;20007;-86
2022/12/29 08:30:32;;;;;;;3.17;1.23;;;;;;;12.38;37.64;99718.34;6014077;23;20850;-86
2022/12/29 08:32:58;;;;;;;4.13;1.35;;;;;;;12.40;37.66;99718.13;6015048;23;20496;-86
2022/12/29 08:35:24;;;;;;;3.30;1.45;;;;;;;12.48;37.56;99725.06;6038294;23;20046;-86
2022/12/29 08:37:49;;;;;;;1.67;1.02;;;;;;;12.30;37.55;99699.03;6014562;23;20314;-86
2022/12/29 08:40:15;;;;;;;3.00;1.42;;;;;;;12.57;37.70;99739.84;6014692;23;20471;-86
2022/12/29 08:42:41;;;;;;;2.20;1.30;;;;;;;12.53;37.71;99736.78;6014965;23;20459;-86
2022/12/29 08:45:08;;;;;;;1.65;1.20;;;;;;;12.35;37.34;99704.56;6038242;23;20094;-86
2022/12/29 08:47:34;;;;;;;2.55;1.00;;;;;;;12.45;37.59;99720.94;6014741;23;20015;-86
2022/12/29 08:50:00;;;;;;;2.80;1.10;;;;;;;12.54;37.89;99741.13;6014970;23;20142;-86
2022/12/29 08:52:26;;;;;;;3.25;1.42;;;;;;;12.38;37.57;99714.81;6014229;23;20373;-86
2022/12/29 08:54:51;;;;;;;3.20;1.50;;;;;;;12.46;37.76;99733.31;6038745;23;20014;-86
2022/12/29 08:57:17;;;;;;;2.80;1.33;;;;;;;12.44;37.86;99724.69;6014633;23;20038;-86
2022/12/29 08:59:43;;;;;;;1.73;1.30;;;;;;;12.44;37.86;99723.88;6014831;23;20033;-86
2022/12/29 09:02:15;;;;;;;3.00;1.15;;;;;;;12.44;37.58;99722.00;6014617;23;20010;-86
2022/12/29 09:04:41;;;;;;;1.88;1.25;;;;;;;12.33;37.78;99709.28;6013619;23;20455;-86
2022/12/29 09:07:06;;;;;;;3.78;1.63;;;;;;;12.44;37.81;99727.38;6014236;23;20011;-86
2022/12/29 09:09:33;;;;;;;2.05;1.25;;;;;;;12.44;37.80;99718.50;6014378;23;20010;-86
2022/12/29 09:11:58;;;;;;;2.88;1.60;;;;;;;12.62;37.77;99741.88;6014752;23;20089;-86
2022/12/29 09:14:24;;;;;;;1.92;1.20;;;;;;;12.47;37.68;99729.63;6037709;23;20078;-86
2022/12/29 09:19:37;;;;;;;2.35;1.38;;;;;;;12.34;37.76;99701.03;6042088;23;20071;-86
2022/12/29 09:22:03;;;;;;;2.83;1.10;;;;;;;12.60;37.59;99744.78;6038495;23;20010;-86
2022/12/29 09:24:29;;;;;;;3.28;1.30;;;;;;;12.37;37.96;99702.47;6013981;23;20014;-86
2022/12/29 09:26:55;;;;;;;2.17;1.30;;;;;;;12.48;37.79;99715.16;6014511;23;20397;-86
2022/12/29 09:29:20;;;;;;;2.38;1.30;;;;;;;12.34;37.89;99701.03;6014596;23;20440;-86
2022/12/29 09:31:46;;;;;;;1.73;1.30;;;;;;;12.39;37.89;99708.44;6014233;23;20697;-86
2022/12/29 09:34:17;;;;;;;2.90;1.30;;;;;;;12.42;37.81;99705.31;6014674;23;20018;-86
2022/12/29 09:36:43;;;;;;;1.77;1.25;;;;;;;12.35;37.86;99693.84;6014793;23;20060;-86
2022/12/29 09:39:09;;;;;;;1.88;1.20;;;;;;;12.32;37.74;99688.91;6014376;23;20011;-86
2022/12/29 09:41:41;;;;;;;2.35;1.27;;;;;;;12.44;37.78;99708.59;6014618;23;20007;-86
2022/12/29 09:44:18;;;;;;;1.85;1.30;;;;;;;12.35;37.91;99693.84;6014968;23;20025;-86
2022/12/29 09:46:46;;;;;;;1.13;0.90;;;;;;;12.32;37.90;99695.06;6037814;23;20087;-86
2022/12/29 09:49:39;;;;;;;1.98;1.13;;;;;;;12.54;37.84;99718.84;6014429;23;20033;-85
2022/12/29 09:52:20;;;;;;;2.17;1.25;;;;;;;12.51;37.89;99714.75;6050021;23;20014;-86
2022/12/29 09:54:51;;;;;;;2.35;1.13;;;;;;;12.40;37.92;99696.69;6015659;23;20010;-86
2022/12/29 09:57:29;;;;;;;2.33;1.30;;;;;;;12.38;38.19;99704.09;6014576;23;20011;-86
2022/12/29 10:00:44;;;;;;;2.85;1.55;;;;;;;12.57;37.92;99713.88;6016437;23;20356;-86
2022/12/29 10:03:18;;;;;;;1.52;1.05;;;;;;;12.27;38.10;99664.63;6052075;23;20007;-86
2022/12/29 10:06:12;;;;;;;1.65;1.30;;;;;;;12.20;38.11;99653.94;6014246;23;20030;-86
2022/12/29 10:08:54;;;;;;;3.05;1.40;;;;;;;12.58;37.93;99704.78;6014448;23;20284;-86
2022/12/29 10:11:23;;;;;;;2.63;1.45;;;;;;;12.48;37.91;99687.56;6035712;23;20484;-86
2022/12/29 10:14:27;;;;;;;1.90;1.20;;;;;;;12.56;38.12;99693.47;6038627;23;20006;-86
2022/12/29 10:17:11;;;;;;;2.17;1.30;;;;;;;12.36;38.10;99674.03;6061215;23;20543;-86
2022/12/29 10:20:05;;;;;;;2.22;1.23;;;;;;;12.43;38.05;99685.50;6015789;23;20014;-86
2022/12/29 10:22:43;;;;;;;3.13;1.10;;;;;;;12.58;37.87;99702.09;6018185;23;20411;-86
2022/12/29 10:25:16;;;;;;;2.20;1.30;;;;;;;12.33;37.62;99658.38;6061709;23;20007;-86
2022/12/29 10:27:42;;;;;;;1.52;1.30;;;;;;;12.54;38.08;99687.50;6014054;23;20011;-86
2022/12/29 10:30:13;;;;;;;1.98;1.20;;;;;;;12.30;38.21;99662.31;6013716;23;20007;-86
2022/12/29 10:32:43;;;;;;;2.47;1.30;;;;;;;12.33;37.92;99656.53;6016457;23;20094;-86
2022/12/29 10:35:15;;;;;;;3.40;1.08;;;;;;;12.39;37.92;99654.84;6035983;23;20098;-86
2022/12/29 10:37:46;;;;;;;2.10;1.20;;;;;;;12.23;37.96;99625.88;6013819;23;20344;-85
2022/12/29 10:40:23;;;;;;;1.80;1.05;;;;;;;12.55;38.10;99672.25;6038240;23;20007;-86
2022/12/29 10:42:56;;;;;;;1.90;1.27;;;;;;;12.37;38.32;99656.91;6037987;23;20014;-86
2022/12/29 10:45:24;;;;;;;1.38;1.15;;;;;;;12.19;38.08;99610.28;6013012;23;20097;-85
2022/12/29 10:48:05;;;;;;;1.20;1.10;;;;;;;12.26;38.27;99633.50;6014028;23;20018;-86
2022/12/29 10:50:31;;;;;;;2.15;1.20;;;;;;;12.15;37.91;99613.59;6014704;23;20364;-86
2022/12/29 10:52:59;;;;;;;2.60;1.20;;;;;;;12.38;38.15;99642.47;6013858;23;20006;-86
2022/12/29 10:55:27;;;;;;;2.10;1.40;;;;;;;12.55;37.72;99675.72;6013961;23;20093;-85
2022/12/29 10:57:53;;;;;;;2.05;1.20;;;;;;;12.30;38.35;99626.69;6014086;23;20018;-86
2022/12/29 11:00:20;;;;;;;1.42;1.08;;;;;;;12.25;38.05;99623.84;6013253;23;20011;-85
2022/12/29 11:02:52;;;;;;;1.30;0.95;;;;;;;12.53;38.20;99656.38;6013516;23;20007;-85
2022/12/29 11:05:30;;;;;;;1.10;1.00;;;;;;;12.54;38.27;99649.16;6060850;23;20115;-86
2022/12/29 11:07:58;;;;;;;1.42;1.25;;;;;;;12.26;38.25;99610.19;6060814;23;20037;-86
2022/12/29 11:10:39;;;;;;;1.77;1.15;;;;;;;12.33;37.82;99615.50;6013174;23;20011;-86
2022/12/29 11:13:20;;;;;;;1.85;1.27;;;;;;;12.21;38.00;99594.78;6015025;23;20011;-86
2022/12/29 11:15:47;;;;;;;2.15;1.23;;;;;;;12.35;38.21;99619.63;6037316;23;20068;-86
2022/12/29 11:18:43;;;;;;;1.60;1.10;;;;;;;12.38;38.12;99623.72;6013135;23;20011;-86
2022/12/29 11:21:28;;;;;;;2.22;1.30;;;;;;;12.52;38.09;99635.16;6019402;23;20039;-86
2022/12/29 11:24:04;;;;;;;1.35;1.10;;;;;;;12.53;38.30;99634.94;6061621;23;20464;-86
2022/12/29 11:26:33;;;;;;;1.70;1.20;;;;;;;12.29;38.02;99590.19;6013828;23;20097;-86
2022/12/29 11:29:08;;;;;;;2.15;1.27;;;;;;;12.53;38.11;99615.34;6015959;23;20014;-86
2022/12/29 11:31:47;;;;;;;1.55;1.20;;;;;;;12.17;38.25;99568.66;6062716;23;20101;-86
2022/12/29 11:34:25;;;;;;;1.23;1.10;;;;;;;12.36;38.25;99593.63;6015660;23;20098;-86
2022/12/29 11:36:58;;;;;;;2.47;1.20;;;;;;;12.50;38.50;99613.09;6015994;23;20011;-86
2022/12/29 11:39:35;;;;;;;1.83;1.20;;;;;;;12.16;38.25;99557.13;6015901;23;20780;-86
2022/12/29 11:42:02;;;;;;;2.67;1.25;;;;;;;12.15;38.42;99555.47;6016038;23;20377;-86
2022/12/29 11:44:28;;;;;;;2.30;1.25;;;;;;;12.42;38.34;99590.09;6014588;23;20017;-86
2022/12/29 11:46:54;;;;;;;1.40;1.17;;;;;;;12.26;38.30;99572.69;6015571;23;20425;-86
2022/12/29 11:49:21;;;;;;;1.27;1.02;;;;;;;12.33;38.42;99572.63;6014923;23;20007;-86
2022/12/29 11:51:48;;;;;;;1.52;1.08;;;;;;;12.30;38.27;99573.91;6015360;23;20003;-86
2022/12/29 11:54:33;;;;;;;2.08;1.52;;;;;;;12.50;38.32;99592.47;6015227;23;20479;-86
2022/12/29 11:57:14;;;;;;;2.33;1.20;;;;;;;12.49;38.48;99593.53;6038982;23;20441;-86
2022/12/29 11:59:42;;;;;;;3.08;1.50;;;;;;;12.49;38.34;99582.00;6016599;23;20007;-86
2022/12/29 12:02:22;;;;;;;2.35;1.40;;;;;;;12.47;38.28;99582.22;6015613;23;20014;-86
2022/12/29 12:04:54;;;;;;;1.10;1.00;;;;;;;12.23;38.43;99535.66;6043181;23;20022;-86
2022/12/29 12:07:28;;;;;;;2.05;1.52;;;;;;;12.49;38.26;99576.66;6020151;23;20018;-86
2022/12/29 12:09:58;;;;;;;1.35;1.25;;;;;;;12.24;38.22;99541.81;6043746;23;20328;-86
2022/12/29 12:12:33;;;;;;;1.80;1.25;;;;;;;12.21;38.43;99543.06;6019606;23;20494;-86
2022/12/29 12:14:59;;;;;;;1.10;0.90;;;;;;;12.21;38.28;99529.66;6020437;23;20015;-86
2022/12/29 12:17:40;;;;;;;1.90;1.20;;;;;;;12.16;38.36;99535.69;6020067;23;20014;-86
2022/12/29 12:20:45;;;;;;;2.72;1.45;;;;;;;12.14;38.48;99524.38;6021470;23;20006;-86
2022/12/29 12:23:28;;;;;;;;;;;;;;;12.42;38.41;99554.41;5953220;24;20015;-86
2022/12/29 12:26:14;;;;;;;1.42;1.00;;;;;;;12.43;38.50;99562.25;5952079;24;19918;-86